Valatie, New York
Current Conditions -  °F | °C
As of 4:54 PM on Monday 20 Oct 2014 (Local Time) from KPSF Reporting Station
Overcast Overcast  
Wind Chill: 49°   Ceiling: 7500
Heat Index: 49°   Visibility: 10mi
Dew Point: 34°   Wind: 0mph
Humidity: 56%   Direction: NA
Pressure: 29.94"   Gusts: NA
Location:  42.41°N, 73.67°W
Report Text: KPSF 202054Z AUTO 00000KT 10SM OVC075 09/01 A2994 RMK AO2 SLP138 T00940011 58003
Loading
Personal Weather Stations






























Interactive Weather Map
Tropical Storm Tracking
New forecast layout! Learn more

10-Day Weather Forecast

Advertisements
Track Severe Weather on mobile